Time;durP1;ratioP1;P1;durP2;ratioP2;P2;SDS_P1;SDS_P2;PMS_P1;PMS_P2;Temp;Humidity;BMP_temperature;BMP_pressure;BME280_temperature;BME280_humidity;BME280_pressure;Samples;Min_cycle;Max_cycle;Signal;HPM_P1;HPM_P2
2023/01/28 00:03:36;;;;;;;1.13;0.30;;;;;;;;;;10426050;28;20226;-76
2023/01/28 00:08:37;;;;;;;0.30;0.30;;;;;;;;;;10429902;28;21029;-79
2023/01/28 00:13:39;;;;;;;0.10;0.10;;;;;;;;;;10429683;28;20238;-77
2023/01/28 00:18:40;;;;;;;0.50;0.40;;;;;;;;;;10420729;28;20844;-79
2023/01/28 00:23:42;;;;;;;0.57;0.17;;;;;;;;;;10422181;28;20210;-78
2023/01/28 00:28:43;;;;;;;0.30;0.30;;;;;;;;;;10432032;28;20214;-78
2023/01/28 00:33:45;;;;;;;4.10;0.30;;;;;;;;;;10431574;28;20207;-77
2023/01/28 00:38:50;;;;;;;0.35;0.35;;;;;;;;;;10425215;28;20237;-78
2023/01/28 00:43:52;;;;;;;1.30;0.50;;;;;;;;;;10426972;28;20207;-77
2023/01/28 00:48:53;;;;;;;0.70;0.20;;;;;;;;;;10436743;28;20859;-77
2023/01/28 00:53:54;;;;;;;4.75;0.30;;;;;;;;;;10419371;28;20234;-78
2023/01/28 00:58:55;;;;;;;0.40;0.40;;;;;;;;;;10417497;28;20816;-78
2023/01/28 01:04:01;;;;;;;2.38;0.20;;;;;;;;;;10435334;28;20214;-77
2023/01/28 01:09:04;;;;;;;0.95;0.22;;;;;;;;;;10442320;28;20249;-77
2023/01/28 01:14:06;;;;;;;0.52;0.30;;;;;;;;;;10436290;28;20571;-78
2023/01/28 01:19:07;;;;;;;0.30;0.30;;;;;;;;;;10419105;28;20238;-77
2023/01/28 01:24:10;;;;;;;1.33;0.30;;;;;;;;;;10457192;28;20237;-76
2023/01/28 01:29:11;;;;;;;1.67;0.32;;;;;;;;;;10451960;28;20272;-78
2023/01/28 01:34:12;;;;;;;0.17;0.17;;;;;;;;;;10442893;28;20211;-76
2023/01/28 01:39:13;;;;;;;5.68;0.50;;;;;;;;;;10435099;28;20210;-76
2023/01/28 01:44:33;;;;;;;2.38;0.28;;;;;;;;;;10409230;28;20285;-77
2023/01/28 01:49:35;;;;;;;0.20;0.20;;;;;;;;;;10459959;28;20696;-78
2023/01/28 01:54:37;;;;;;;1.80;0.20;;;;;;;;;;10440403;28;20799;-78
2023/01/28 01:59:39;;;;;;;0.45;0.20;;;;;;;;;;10443985;28;20215;-77
2023/01/28 02:04:43;;;;;;;0.10;0.10;;;;;;;;;;10449710;28;20724;-78
2023/01/28 02:09:44;;;;;;;1.10;0.30;;;;;;;;;;10415394;28;20851;-78
2023/01/28 02:14:48;;;;;;;0.82;0.20;;;;;;;;;;10416908;28;20222;-76
2023/01/28 02:19:58;;;;;;;2.05;0.30;;;;;;;;;;10434080;28;20223;-78
2023/01/28 02:25:15;;;;;;;0.10;0.10;;;;;;;;;;10434467;28;20791;-77
2023/01/28 02:30:20;;;;;;;0.77;0.30;;;;;;;;;;10414900;28;20225;-77
2023/01/28 02:35:31;;;;;;;2.00;0.30;;;;;;;;;;10414220;28;20179;-78
2023/01/28 02:41:01;;;;;;;0.20;0.20;;;;;;;;;;10430746;28;20268;-77
2023/01/28 02:51:22;;;;;;;2.00;0.28;;;;;;;;;;10438574;28;20263;-78
2023/01/28 02:56:28;;;;;;;0.85;0.38;;;;;;;;;;10414041;28;20219;-77
2023/01/28 03:01:35;;;;;;;1.70;0.38;;;;;;;;;;10414269;28;20300;-78
2023/01/28 03:06:43;;;;;;;0.25;0.22;;;;;;;;;;10430806;28;20634;-78
2023/01/28 03:38:47;;;;;;;0.98;0.63;;;;;;;;;;10445067;28;20880;-78
2023/01/28 03:43:49;;;;;;;1.33;0.65;;;;;;;;;;10437924;28;20267;-77
2023/01/28 03:48:50;;;;;;;3.90;0.50;;;;;;;;;;10396943;28;20242;-78
2023/01/28 03:53:52;;;;;;;0.40;0.40;;;;;;;;;;10427091;28;20210;-77
2023/01/28 03:58:55;;;;;;;0.40;0.40;;;;;;;;;;10424358;28;20781;-76
2023/01/28 04:03:58;;;;;;;1.55;0.80;;;;;;;;;;10407560;28;20284;-78
2023/01/28 04:09:04;;;;;;;0.77;0.77;;;;;;;;;;10426948;28;20207;-78
2023/01/28 04:14:08;;;;;;;1.15;0.90;;;;;;;;;;10429928;28;20210;-78
2023/01/28 04:19:19;;;;;;;0.50;0.50;;;;;;;;;;10387993;28;20213;-78
2023/01/28 04:24:21;;;;;;;0.40;0.40;;;;;;;;;;10422691;28;20218;-77
2023/01/28 04:29:22;;;;;;;0.43;0.43;;;;;;;;;;10412464;28;20246;-76
2023/01/28 04:34:25;;;;;;;0.68;0.50;;;;;;;;;;10427390;28;20224;-77
2023/01/28 04:39:48;;;;;;;0.40;0.40;;;;;;;;;;10410604;28;20214;-78
2023/01/28 04:45:13;;;;;;;2.53;0.55;;;;;;;;;;10424952;28;20561;-78
2023/01/28 04:50:40;;;;;;;2.15;0.80;;;;;;;;;;10410694;28;20234;-77
2023/01/28 04:55:49;;;;;;;2.05;0.47;;;;;;;;;;10425659;28;20214;-77
2023/01/28 05:00:57;;;;;;;1.67;0.40;;;;;;;;;;10421742;28;20345;-78
2023/01/28 05:05:59;;;;;;;0.40;0.40;;;;;;;;;;10410494;28;20296;-78
2023/01/28 05:11:13;;;;;;;0.43;0.43;;;;;;;;;;10398467;28;20842;-78
2023/01/28 05:16:14;;;;;;;0.40;0.40;;;;;;;;;;10426341;28;20222;-79
2023/01/28 05:21:16;;;;;;;1.55;0.30;;;;;;;;;;10395466;28;20319;-77
2023/01/28 05:26:18;;;;;;;0.52;0.40;;;;;;;;;;10390330;28;20227;-78
2023/01/28 05:31:20;;;;;;;0.40;0.40;;;;;;;;;;10426116;28;20230;-76
2023/01/28 05:36:21;;;;;;;2.05;0.77;;;;;;;;;;10431546;28;20280;-78
2023/01/28 05:41:22;;;;;;;0.52;0.38;;;;;;;;;;10415130;28;20219;-79
2023/01/28 05:46:29;;;;;;;2.22;0.50;;;;;;;;;;10415995;28;20205;-78
2023/01/28 05:51:39;;;;;;;0.47;0.40;;;;;;;;;;10416312;28;20221;-78
2023/01/28 05:56:41;;;;;;;0.95;0.30;;;;;;;;;;10434397;28;20977;-78
2023/01/28 06:01:42;;;;;;;1.25;0.60;;;;;;;;;;10423611;28;20234;-76
2023/01/28 06:06:44;;;;;;;0.30;0.30;;;;;;;;;;10398169;28;20249;-79
2023/01/28 06:11:46;;;;;;;0.20;0.20;;;;;;;;;;10416978;28;20226;-78
2023/01/28 06:16:49;;;;;;;0.57;0.30;;;;;;;;;;10399100;28;20745;-78
2023/01/28 06:22:09;;;;;;;0.20;0.20;;;;;;;;;;10427303;28;20217;-79
2023/01/28 06:27:10;;;;;;;2.58;0.60;;;;;;;;;;10415022;28;20715;-78
2023/01/28 06:32:11;;;;;;;0.65;0.50;;;;;;;;;;10431606;28;20879;-77
2023/01/28 06:37:13;;;;;;;0.47;0.30;;;;;;;;;;10430578;28;20215;-79
2023/01/28 06:42:14;;;;;;;0.65;0.30;;;;;;;;;;10429544;28;20230;-77
2023/01/28 06:47:15;;;;;;;0.70;0.40;;;;;;;;;;10409333;28;20388;-76
2023/01/28 06:52:16;;;;;;;0.30;0.30;;;;;;;;;;10429684;28;20722;-78
2023/01/28 06:57:17;;;;;;;1.55;0.20;;;;;;;;;;10433796;28;20206;-78
2023/01/28 07:02:19;;;;;;;2.28;0.30;;;;;;;;;;10423831;28;20225;-76
2023/01/28 07:07:20;;;;;;;0.63;0.20;;;;;;;;;;10433567;28;20216;-78
2023/01/28 07:12:21;;;;;;;0.50;0.50;;;;;;;;;;10433204;28;20279;-78
2023/01/28 07:17:22;;;;;;;0.40;0.40;;;;;;;;;;10414467;28;20203;-76
2023/01/28 07:22:23;;;;;;;0.20;0.20;;;;;;;;;;10428799;28;20223;-76
2023/01/28 07:27:24;;;;;;;0.68;0.20;;;;;;;;;;10415448;28;20206;-76
2023/01/28 07:32:26;;;;;;;0.30;0.30;;;;;;;;;;10391230;28;20233;-76
2023/01/28 07:37:27;;;;;;;0.95;0.40;;;;;;;;;;10413449;28;20223;-75
2023/01/28 07:42:28;;;;;;;0.22;0.20;;;;;;;;;;10414088;28;20684;-74
2023/01/28 07:47:29;;;;;;;4.97;0.40;;;;;;;;;;10398673;28;20222;-74
2023/01/28 07:52:36;;;;;;;1.80;0.30;;;;;;;;;;10416154;28;20313;-75
2023/01/28 07:57:47;;;;;;;0.47;0.22;;;;;;;;;;10420862;28;20206;-76
2023/01/28 08:02:48;;;;;;;0.40;0.40;;;;;;;;;;10415863;28;20254;-76
2023/01/28 08:07:50;;;;;;;0.32;0.32;;;;;;;;;;10430331;28;20218;-76
2023/01/28 08:12:51;;;;;;;0.52;0.28;;;;;;;;;;10416189;28;20243;-77
2023/01/28 08:17:57;;;;;;;0.20;0.20;;;;;;;;;;10416634;28;20260;-77
2023/01/28 08:23:13;;;;;;;0.50;0.50;;;;;;;;;;10427598;28;20233;-76
2023/01/28 08:28:15;;;;;;;0.32;0.32;;;;;;;;;;10420336;28;20214;-75
2023/01/28 08:33:17;;;;;;;0.50;0.50;;;;;;;;;;10428643;28;20218;-76
2023/01/28 08:38:19;;;;;;;1.13;0.50;;;;;;;;;;10407849;28;20325;-77
2023/01/28 08:43:20;;;;;;;0.30;0.30;;;;;;;;;;10411667;28;20774;-77
2023/01/28 08:48:21;;;;;;;0.45;0.40;;;;;;;;;;10426117;28;20230;-78
2023/01/28 08:53:22;;;;;;;0.20;0.20;;;;;;;;;;10424341;28;20210;-77
2023/01/28 08:58:23;;;;;;;0.80;0.20;;;;;;;;;;10427088;28;20267;-78
2023/01/28 09:03:24;;;;;;;1.75;0.43;;;;;;;;;;10428658;28;20218;-77
2023/01/28 09:08:25;;;;;;;2.15;0.40;;;;;;;;;;10429988;28;20693;-78
2023/01/28 09:13:27;;;;;;;1.85;0.40;;;;;;;;;;10436875;28;20207;-79
2023/01/28 09:18:29;;;;;;;0.15;0.15;;;;;;;;;;10435029;28;20202;-78
2023/01/28 09:23:30;;;;;;;0.38;0.30;;;;;;;;;;10415466;28;20218;-78
2023/01/28 09:28:31;;;;;;;0.40;0.30;;;;;;;;;;10418365;28;20256;-76
2023/01/28 09:33:33;;;;;;;0.30;0.30;;;;;;;;;;10433259;28;20276;-77
2023/01/28 09:38:34;;;;;;;0.65;0.40;;;;;;;;;;10434151;28;20222;-76
2023/01/28 09:43:35;;;;;;;0.85;0.40;;;;;;;;;;10416677;28;20272;-76
2023/01/28 09:48:39;;;;;;;0.25;0.25;;;;;;;;;;10433138;28;20215;-77
2023/01/28 09:53:44;;;;;;;0.30;0.30;;;;;;;;;;10398255;28;20249;-77
2023/01/28 09:58:45;;;;;;;0.20;0.20;;;;;;;;;;10425468;28;20222;-75
2023/01/28 10:04:15;;;;;;;0.60;0.30;;;;;;;;;;10430985;28;20309;-77
2023/01/28 10:09:27;;;;;;;0.35;0.30;;;;;;;;;;10430525;28;20223;-77
2023/01/28 10:14:47;;;;;;;0.30;0.30;;;;;;;;;;10399802;28;20211;-77
2023/01/28 10:19:58;;;;;;;0.50;0.50;;;;;;;;;;10433442;28;20321;-77
2023/01/28 10:25:05;;;;;;;0.30;0.30;;;;;;;;;;10433586;28;20740;-77
2023/01/28 10:30:19;;;;;;;0.93;0.93;;;;;;;;;;10428572;28;21036;-77
2023/01/28 10:35:21;;;;;;;4.32;1.55;;;;;;;;;;10412212;28;20179;-77
2023/01/28 10:40:22;;;;;;;0.38;0.30;;;;;;;;;;10434321;28;20272;-77
2023/01/28 10:45:26;;;;;;;0.30;0.30;;;;;;;;;;10413856;28;20221;-77
2023/01/28 10:50:28;;;;;;;0.50;0.40;;;;;;;;;;10428536;28;20261;-76
2023/01/28 10:55:31;;;;;;;0.85;0.40;;;;;;;;;;10422770;28;20222;-78
2023/01/28 11:00:37;;;;;;;0.95;0.40;;;;;;;;;;10431093;28;20219;-77
2023/01/28 11:05:38;;;;;;;0.30;0.30;;;;;;;;;;10404044;28;20268;-74
2023/01/28 11:10:39;;;;;;;0.25;0.20;;;;;;;;;;10423354;28;20220;-75
2023/01/28 11:15:46;;;;;;;0.30;0.30;;;;;;;;;;10436930;28;20272;-75
2023/01/28 11:20:55;;;;;;;0.38;0.38;;;;;;;;;;10419562;28;20925;-76
2023/01/28 11:26:14;;;;;;;0.75;0.20;;;;;;;;;;10419094;28;20599;-76
2023/01/28 11:31:16;;;;;;;0.50;0.30;;;;;;;;;;10415215;28;20221;-77
2023/01/28 11:36:22;;;;;;;0.40;0.30;;;;;;;;;;10412998;28;20653;-75
2023/01/28 11:41:30;;;;;;;0.40;0.40;;;;;;;;;;10400705;28;20222;-77
2023/01/28 11:46:50;;;;;;;0.30;0.30;;;;;;;;;;10417722;28;20207;-74
2023/01/28 11:51:58;;;;;;;0.20;0.20;;;;;;;;;;10420371;28;20300;-76
2023/01/28 11:57:04;;;;;;;0.20;0.20;;;;;;;;;;10420693;28;20211;-76
2023/01/28 12:02:23;;;;;;;0.30;0.30;;;;;;;;;;10390315;28;20732;-76
2023/01/28 12:07:36;;;;;;;1.70;1.60;;;;;;;;;;10415586;28;20218;-75
2023/01/28 12:13:02;;;;;;;0.55;0.52;;;;;;;;;;10410098;28;20383;-74
2023/01/28 12:18:03;;;;;;;1.42;0.38;;;;;;;;;;10419772;28;20633;-77
2023/01/28 12:23:08;;;;;;;0.35;0.35;;;;;;;;;;10418406;28;20222;-74
2023/01/28 12:28:16;;;;;;;0.30;0.30;;;;;;;;;;10426387;28;20834;-76
2023/01/28 12:33:32;;;;;;;0.40;0.40;;;;;;;;;;10421537;28;20226;-76
2023/01/28 12:38:42;;;;;;;1.95;0.47;;;;;;;;;;10420412;28;20214;-76
2023/01/28 12:43:46;;;;;;;0.40;0.40;;;;;;;;;;10426237;28;20272;-75
2023/01/28 12:48:57;;;;;;;0.65;0.65;;;;;;;;;;10427336;28;20249;-76
2023/01/28 12:54:17;;;;;;;0.43;0.43;;;;;;;;;;10419687;28;20226;-76
2023/01/28 12:59:22;;;;;;;0.40;0.40;;;;;;;;;;10412494;28;20221;-77
2023/01/28 13:04:39;;;;;;;0.40;0.40;;;;;;;;;;10431988;28;20210;-77
2023/01/28 13:09:44;;;;;;;0.30;0.30;;;;;;;;;;10424387;28;20222;-75
2023/01/28 13:14:45;;;;;;;2.15;0.40;;;;;;;;;;10426139;28;20553;-76
2023/01/28 13:19:46;;;;;;;0.30;0.30;;;;;;;;;;10427103;28;20617;-77
2023/01/28 13:24:47;;;;;;;1.15;0.20;;;;;;;;;;10424641;28;20252;-76
2023/01/28 13:29:59;;;;;;;0.30;0.30;;;;;;;;;;10424616;28;20222;-77
2023/01/28 13:35:03;;;;;;;0.55;0.35;;;;;;;;;;10426100;28;20225;-76
2023/01/28 13:40:13;;;;;;;0.38;0.38;;;;;;;;;;10425563;28;20210;-76
2023/01/28 13:45:14;;;;;;;0.20;0.20;;;;;;;;;;10426616;28;20183;-76
2023/01/28 13:50:18;;;;;;;0.45;0.45;;;;;;;;;;10431395;28;20214;-76
2023/01/28 13:55:21;;;;;;;2.20;2.10;;;;;;;;;;10407814;28;20190;-77
2023/01/28 14:00:25;;;;;;;1.70;1.60;;;;;;;;;;10420268;28;20629;-75
2023/01/28 14:05:26;;;;;;;1.25;1.13;;;;;;;;;;10430867;28;20237;-76
2023/01/28 14:10:43;;;;;;;0.73;0.50;;;;;;;;;;10427971;28;20734;-78
2023/01/28 14:15:49;;;;;;;0.40;0.40;;;;;;;;;;10406862;28;20222;-76
2023/01/28 14:20:51;;;;;;;0.60;0.60;;;;;;;;;;10406360;28;20310;-79
2023/01/28 14:26:07;;;;;;;0.20;0.20;;;;;;;;;;10419334;28;20215;-75
2023/01/28 14:31:15;;;;;;;3.42;0.65;;;;;;;;;;10423867;28;20590;-78
2023/01/28 14:36:16;;;;;;;0.40;0.40;;;;;;;;;;10418796;28;20215;-77
2023/01/28 14:41:21;;;;;;;0.57;0.57;;;;;;;;;;10399529;28;20305;-78
2023/01/28 14:46:41;;;;;;;0.95;0.35;;;;;;;;;;10423589;28;20888;-77
2023/01/28 14:52:03;;;;;;;0.70;0.70;;;;;;;;;;10403940;28;20226;-76
2023/01/28 14:57:05;;;;;;;0.30;0.30;;;;;;;;;;10424557;28;20309;-77
2023/01/28 15:02:17;;;;;;;0.68;0.68;;;;;;;;;;10411133;28;20691;-78
2023/01/28 15:07:23;;;;;;;2.17;0.85;;;;;;;;;;10420620;28;20218;-78
2023/01/28 15:12:24;;;;;;;1.50;0.77;;;;;;;;;;10423784;28;20211;-76
2023/01/28 15:17:26;;;;;;;0.70;0.70;;;;;;;;;;10422617;28;20242;-78
2023/01/28 15:22:28;;;;;;;0.60;0.60;;;;;;;;;;10430699;28;20259;-77
2023/01/28 15:27:30;;;;;;;0.50;0.50;;;;;;;;;;10433406;28;20245;-77
2023/01/28 15:32:31;;;;;;;0.70;0.70;;;;;;;;;;10420694;28;20755;-77
2023/01/28 15:37:33;;;;;;;4.72;4.03;;;;;;;;;;10417423;28;20206;-77
2023/01/28 15:42:34;;;;;;;2.30;2.20;;;;;;;;;;10393253;28;20225;-78
2023/01/28 15:47:35;;;;;;;0.60;0.60;;;;;;;;;;10426001;28;20369;-78
2023/01/28 15:52:38;;;;;;;1.10;1.10;;;;;;;;;;10428640;28;20222;-78
2023/01/28 15:57:39;;;;;;;5.72;3.30;;;;;;;;;;10429702;28;20218;-79
2023/01/28 16:02:48;;;;;;;7.80;5.70;;;;;;;;;;10429586;28;20448;-77
2023/01/28 16:07:49;;;;;;;2.10;2.00;;;;;;;;;;10424673;28;20684;-77
2023/01/28 16:12:52;;;;;;;1.95;1.05;;;;;;;;;;10417412;28;20218;-78
2023/01/28 16:17:53;;;;;;;3.80;1.05;;;;;;;;;;10412342;28;20212;-78
2023/01/28 16:22:55;;;;;;;5.40;3.10;;;;;;;;;;10409362;28;20218;-77
2023/01/28 16:27:57;;;;;;;2.30;1.90;;;;;;;;;;10417279;28;20345;-76
2023/01/28 16:32:59;;;;;;;3.97;2.88;;;;;;;;;;10418427;28;20218;-78
2023/01/28 16:38:00;;;;;;;4.40;3.80;;;;;;;;;;10411623;28;20211;-78
2023/01/28 16:43:01;;;;;;;2.78;2.50;;;;;;;;;;10393273;28;20222;-75
2023/01/28 16:48:02;;;;;;;2.47;2.38;;;;;;;;;;10388533;28;20213;-76
2023/01/28 16:53:03;;;;;;;3.83;3.55;;;;;;;;;;10422967;28;20218;-77
2023/01/28 16:58:04;;;;;;;3.50;3.20;;;;;;;;;;10425448;28;20223;-76
2023/01/28 17:03:06;;;;;;;1.73;1.63;;;;;;;;;;10424985;28;20957;-77
2023/01/28 17:08:07;;;;;;;1.42;1.40;;;;;;;;;;10423989;28;20759;-76
2023/01/28 17:13:08;;;;;;;3.75;3.42;;;;;;;;;;10406483;28;20211;-77
2023/01/28 17:18:10;;;;;;;3.78;3.47;;;;;;;;;;10407378;28;20633;-77
2023/01/28 17:23:14;;;;;;;4.70;3.45;;;;;;;;;;10427188;28;20226;-76
2023/01/28 17:28:15;;;;;;;13.43;7.03;;;;;;;;;;10430926;28;20660;-75
2023/01/28 17:33:16;;;;;;;5.00;4.32;;;;;;;;;;10430736;28;20623;-77
2023/01/28 17:38:17;;;;;;;6.28;4.15;;;;;;;;;;10417006;28;20655;-76
2023/01/28 17:43:18;;;;;;;5.20;4.15;;;;;;;;;;10433297;28;20221;-78
2023/01/28 17:48:19;;;;;;;2.72;2.33;;;;;;;;;;10431539;28;20249;-76
2023/01/28 17:53:20;;;;;;;2.47;2.25;;;;;;;;;;10425733;28;20329;-77
2023/01/28 17:58:22;;;;;;;2.40;2.08;;;;;;;;;;10418272;28;20744;-77
2023/01/28 18:03:23;;;;;;;5.50;3.07;;;;;;;;;;10431714;28;20688;-77
2023/01/28 18:08:24;;;;;;;2.72;2.63;;;;;;;;;;10430308;28;20719;-76
2023/01/28 18:13:25;;;;;;;3.45;2.88;;;;;;;;;;10433118;28;20210;-78
2023/01/28 18:18:26;;;;;;;3.28;3.08;;;;;;;;;;10429769;28;20238;-77
2023/01/28 18:23:28;;;;;;;2.60;2.42;;;;;;;;;;10432753;28;20242;-77
2023/01/28 18:28:29;;;;;;;11.60;5.93;;;;;;;;;;10434667;28;20758;-77
2023/01/28 18:33:30;;;;;;;20.15;9.63;;;;;;;;;;10414404;28;21131;-78
2023/01/28 18:38:32;;;;;;;21.83;12.20;;;;;;;;;;10424279;28;20215;-77
2023/01/28 18:43:34;;;;;;;5.45;4.75;;;;;;;;;;10430731;28;20224;-77
2023/01/28 18:48:35;;;;;;;5.63;4.97;;;;;;;;;;10434610;28;20214;-77
2023/01/28 18:53:36;;;;;;;53.30;23.05;;;;;;;;;;10446047;28;20739;-76
2023/01/28 18:58:37;;;;;;;59.60;23.13;;;;;;;;;;10442941;28;20544;-75
2023/01/28 19:03:38;;;;;;;41.03;18.38;;;;;;;;;;10428373;28;20214;-77
2023/01/28 19:08:40;;;;;;;49.92;22.55;;;;;;;;;;10430765;28;20207;-77
2023/01/28 19:13:42;;;;;;;43.35;22.52;;;;;;;;;;10445301;28;20688;-74
2023/01/28 19:18:50;;;;;;;37.37;18.73;;;;;;;;;;10423481;28;20719;-75
2023/01/28 19:24:05;;;;;;;16.48;8.98;;;;;;;;;;10408000;28;20229;-75
2023/01/28 19:29:08;;;;;;;9.63;5.55;;;;;;;;;;10426459;28;20222;-76
2023/01/28 19:34:09;;;;;;;11.25;6.72;;;;;;;;;;10418136;28;20203;-78
2023/01/28 19:39:12;;;;;;;35.67;13.55;;;;;;;;;;10422439;28;20844;-76
2023/01/28 19:44:13;;;;;;;14.73;7.03;;;;;;;;;;10427020;28;20253;-76
2023/01/28 19:49:14;;;;;;;15.82;8.18;;;;;;;;;;10428266;28;20221;-76
2023/01/28 19:54:15;;;;;;;9.02;5.75;;;;;;;;;;10427296;28;20234;-76
2023/01/28 19:59:18;;;;;;;5.40;3.80;;;;;;;;;;10384429;28;20281;-76
2023/01/28 20:04:19;;;;;;;4.07;2.80;;;;;;;;;;10424498;28;20279;-77
2023/01/28 20:09:20;;;;;;;7.83;4.30;;;;;;;;;;10418811;28;20230;-76
2023/01/28 20:14:21;;;;;;;7.13;3.87;;;;;;;;;;10422282;28;20268;-77
2023/01/28 20:19:22;;;;;;;6.00;3.53;;;;;;;;;;10404961;28;20306;-77
2023/01/28 20:24:23;;;;;;;6.60;5.27;;;;;;;;;;10423702;28;20300;-75
2023/01/28 20:29:25;;;;;;;3.60;3.27;;;;;;;;;;10424821;28;20935;-76
2023/01/28 20:34:26;;;;;;;5.73;4.30;;;;;;;;;;10429385;28;20215;-77
2023/01/28 20:39:27;;;;;;;5.07;3.75;;;;;;;;;;10425205;28;20625;-74
2023/01/28 20:44:30;;;;;;;6.03;3.83;;;;;;;;;;10419328;28;20592;-75
2023/01/28 20:49:32;;;;;;;4.20;3.80;;;;;;;;;;10395307;28;20789;-78
2023/01/28 20:54:33;;;;;;;6.60;4.90;;;;;;;;;;10419425;28;20658;-77
2023/01/28 20:59:34;;;;;;;4.67;3.50;;;;;;;;;;10417419;28;20217;-76
2023/01/28 21:04:35;;;;;;;4.93;4.18;;;;;;;;;;10404471;28;20217;-77
2023/01/28 21:09:36;;;;;;;6.88;4.10;;;;;;;;;;10429213;28;20206;-77
2023/01/28 21:14:37;;;;;;;6.47;3.87;;;;;;;;;;10431606;28;20217;-77
2023/01/28 21:19:38;;;;;;;3.72;3.42;;;;;;;;;;10430686;28;21028;-78
2023/01/28 21:24:42;;;;;;;5.77;4.47;;;;;;;;;;10433521;28;20211;-77
2023/01/28 21:29:43;;;;;;;7.03;4.50;;;;;;;;;;10435616;28;20405;-78
2023/01/28 21:34:45;;;;;;;8.40;3.90;;;;;;;;;;10439613;28;20215;-77
2023/01/28 21:39:46;;;;;;;4.80;4.30;;;;;;;;;;10443997;28;20234;-76
2023/01/28 21:44:47;;;;;;;4.77;4.30;;;;;;;;;;10446992;28;20203;-77
2023/01/28 21:49:48;;;;;;;8.83;3.77;;;;;;;;;;10443381;28;20214;-77
2023/01/28 21:54:49;;;;;;;8.40;4.83;;;;;;;;;;10418885;28;20206;-77
2023/01/28 21:59:50;;;;;;;8.93;4.57;;;;;;;;;;10433514;28;20242;-77
2023/01/28 22:04:51;;;;;;;12.20;4.67;;;;;;;;;;10436212;28;20250;-78
2023/01/28 22:09:52;;;;;;;5.17;4.30;;;;;;;;;;10425573;28;20213;-77
2023/01/28 22:14:54;;;;;;;6.23;4.97;;;;;;;;;;10428212;28;20573;-77
2023/01/28 22:19:55;;;;;;;5.73;3.93;;;;;;;;;;10416988;28;20866;-76
2023/01/28 22:24:56;;;;;;;4.63;3.87;;;;;;;;;;10431093;28;20215;-78
2023/01/28 22:29:57;;;;;;;8.83;3.83;;;;;;;;;;10392581;28;20926;-75
2023/01/28 22:35:00;;;;;;;5.63;3.50;;;;;;;;;;10416020;28;20658;-76
2023/01/28 22:40:01;;;;;;;7.13;3.50;;;;;;;;;;10407109;28;20219;-77
2023/01/28 22:45:03;;;;;;;8.27;4.37;;;;;;;;;;10424978;28;20207;-77
2023/01/28 22:50:04;;;;;;;4.73;4.17;;;;;;;;;;10424764;28;20684;-79
2023/01/28 22:55:05;;;;;;;8.07;4.30;;;;;;;;;;10425728;28;21201;-78
2023/01/28 23:00:11;;;;;;;5.70;3.50;;;;;;;;;;10438766;28;20218;-77
2023/01/28 23:05:12;;;;;;;7.43;4.37;;;;;;;;;;10420186;28;20266;-76
2023/01/28 23:10:13;;;;;;;9.60;3.87;;;;;;;;;;10410763;28;20199;-78
2023/01/28 23:25:54;;;;;;;11.57;4.73;;;;;;;;;;10430457;28;20215;-78
2023/01/28 23:30:55;;;;;;;8.75;4.10;;;;;;;;;;10411560;28;20217;-79
2023/01/28 23:35:58;;;;;;;8.93;4.70;;;;;;;;;;10393552;28;20601;-78
2023/01/28 23:40:59;;;;;;;5.87;4.33;;;;;;;;;;10429181;28;20230;-76
2023/01/28 23:46:00;;;;;;;8.73;4.53;;;;;;;;;;10429662;28;20268;-77
2023/01/28 23:51:02;;;;;;;5.57;3.43;;;;;;;;;;10424840;28;20329;-77
2023/01/28 23:56:06;;;;;;;7.90;4.40;;;;;;;;;;10419904;28;20305;-79
